sensor_id;sensor_type;location;lat;lon;timestamp;pressure;altitude;pressure_sealevel;temperature;humidity
70909;BME280;58554;52.006;5.926;2023-06-22T00:01:06;101110.75;;;24.01;47.04
70909;BME280;58554;52.006;5.926;2023-06-22T00:03:32;101104.81;;;23.98;47.14
70909;BME280;58554;52.006;5.926;2023-06-22T00:05:59;101101.28;;;23.97;46.99
70909;BME280;58554;52.006;5.926;2023-06-22T00:08:25;101093.53;;;23.94;47.24
70909;BME280;58554;52.006;5.926;2023-06-22T00:10:52;101106.19;;;23.94;47.26
70909;BME280;58554;52.006;5.926;2023-06-22T00:13:18;101107.34;;;23.91;47.45
70909;BME280;58554;52.006;5.926;2023-06-22T00:15:45;101099.44;;;23.90;47.53
70909;BME280;58554;52.006;5.926;2023-06-22T00:18:17;101096.22;;;23.86;47.43
70909;BME280;58554;52.006;5.926;2023-06-22T00:20:43;101099.91;;;23.85;47.64
70909;BME280;58554;52.006;5.926;2023-06-22T00:23:09;101092.16;;;23.82;47.37
70909;BME280;58554;52.006;5.926;2023-06-22T00:25:36;101097.72;;;23.80;47.89
70909;BME280;58554;52.006;5.926;2023-06-22T00:28:04;101099.75;;;23.78;47.89
70909;BME280;58554;52.006;5.926;2023-06-22T00:30:32;101097.38;;;23.75;48.11
70909;BME280;58554;52.006;5.926;2023-06-22T00:32:59;101105.81;;;23.72;47.75
70909;BME280;58554;52.006;5.926;2023-06-22T00:35:29;101098.38;;;23.66;48.00
70909;BME280;58554;52.006;5.926;2023-06-22T00:37:55;101084.34;;;23.62;47.82
70909;BME280;58554;52.006;5.926;2023-06-22T00:40:22;101084.69;;;23.59;48.29
70909;BME280;58554;52.006;5.926;2023-06-22T00:42:49;101084.38;;;23.54;47.88
70909;BME280;58554;52.006;5.926;2023-06-22T00:45:16;101095.63;;;23.50;47.95
70909;BME280;58554;52.006;5.926;2023-06-22T00:47:42;101087.69;;;23.48;48.34
70909;BME280;58554;52.006;5.926;2023-06-22T00:50:09;101087.16;;;23.44;48.25
70909;BME280;58554;52.006;5.926;2023-06-22T00:52:48;101078.22;;;23.44;48.17
70909;BME280;58554;52.006;5.926;2023-06-22T00:55:18;101090.00;;;23.43;48.47
70909;BME280;58554;52.006;5.926;2023-06-22T00:57:45;101098.28;;;23.41;48.50
70909;BME280;58554;52.006;5.926;2023-06-22T01:00:15;101097.78;;;23.38;48.78
70909;BME280;58554;52.006;5.926;2023-06-22T01:02:44;101098.91;;;23.35;48.60
70909;BME280;58554;52.006;5.926;2023-06-22T01:05:11;101100.09;;;23.33;48.81
70909;BME280;58554;52.006;5.926;2023-06-22T01:07:40;101106.53;;;23.32;48.57
70909;BME280;58554;52.006;5.926;2023-06-22T01:10:23;101103.44;;;23.27;48.86
70909;BME280;58554;52.006;5.926;2023-06-22T01:13:01;101093.69;;;23.26;48.74
70909;BME280;58554;52.006;5.926;2023-06-22T01:15:33;101098.56;;;23.22;48.59
70909;BME280;58554;52.006;5.926;2023-06-22T01:18:07;101095.16;;;23.20;48.86
70909;BME280;58554;52.006;5.926;2023-06-22T01:20:36;101103.59;;;23.17;49.04
70909;BME280;58554;52.006;5.926;2023-06-22T01:23:10;101093.13;;;23.14;48.81
70909;BME280;58554;52.006;5.926;2023-06-22T01:25:48;101090.06;;;23.09;49.15
70909;BME280;58554;52.006;5.926;2023-06-22T01:28:45;101087.84;;;23.04;49.48
70909;BME280;58554;52.006;5.926;2023-06-22T01:31:15;101082.09;;;22.99;48.96
70909;BME280;58554;52.006;5.926;2023-06-22T01:33:47;101086.66;;;22.98;49.38
70909;BME280;58554;52.006;5.926;2023-06-22T01:36:18;101086.97;;;22.95;49.11
70909;BME280;58554;52.006;5.926;2023-06-22T01:38:47;101074.81;;;22.91;49.53
70909;BME280;58554;52.006;5.926;2023-06-22T01:41:16;101086.78;;;22.89;49.59
70909;BME280;58554;52.006;5.926;2023-06-22T01:43:47;101080.69;;;22.87;49.68
70909;BME280;58554;52.006;5.926;2023-06-22T01:46:15;101084.41;;;22.86;49.71
70909;BME280;58554;52.006;5.926;2023-06-22T01:48:42;101076.47;;;22.84;49.59
70909;BME280;58554;52.006;5.926;2023-06-22T01:51:09;101075.78;;;22.82;49.70
70909;BME280;58554;52.006;5.926;2023-06-22T01:53:36;101068.31;;;22.76;49.54
70909;BME280;58554;52.006;5.926;2023-06-22T01:56:03;101068.78;;;22.71;49.86
70909;BME280;58554;52.006;5.926;2023-06-22T01:58:32;101069.09;;;22.68;49.92
70909;BME280;58554;52.006;5.926;2023-06-22T02:01:09;101063.16;;;22.64;50.07
70909;BME280;58554;52.006;5.926;2023-06-22T02:03:41;101067.91;;;22.62;50.14
70909;BME280;58554;52.006;5.926;2023-06-22T02:06:24;101068.38;;;22.58;50.65
70909;BME280;58554;52.006;5.926;2023-06-22T02:08:59;101055.06;;;22.56;50.11
70909;BME280;58554;52.006;5.926;2023-06-22T02:11:29;101062.47;;;22.54;50.21
70909;BME280;58554;52.006;5.926;2023-06-22T02:13:59;101065.47;;;22.51;50.60
70909;BME280;58554;52.006;5.926;2023-06-22T02:16:31;101073.56;;;22.51;50.43
70909;BME280;58554;52.006;5.926;2023-06-22T02:19:01;101074.72;;;22.49;50.46
70909;BME280;58554;52.006;5.926;2023-06-22T02:21:28;101074.88;;;22.47;50.15
70909;BME280;58554;52.006;5.926;2023-06-22T02:23:56;101073.34;;;22.44;50.39
70909;BME280;58554;52.006;5.926;2023-06-22T02:26:24;101071.13;;;22.40;50.81
70909;BME280;58554;52.006;5.926;2023-06-22T02:28:52;101071.28;;;22.38;50.62
70909;BME280;58554;52.006;5.926;2023-06-22T02:31:19;101066.38;;;22.34;50.75
70909;BME280;58554;52.006;5.926;2023-06-22T02:33:48;101064.66;;;22.33;50.60
70909;BME280;58554;52.006;5.926;2023-06-22T02:36:15;101059.59;;;22.30;50.84
70909;BME280;58554;52.006;5.926;2023-06-22T02:38:43;101061.47;;;22.29;50.77
70909;BME280;58554;52.006;5.926;2023-06-22T02:41:10;101064.44;;;22.26;50.94
70909;BME280;58554;52.006;5.926;2023-06-22T02:43:36;101054.00;;;22.23;51.04
70909;BME280;58554;52.006;5.926;2023-06-22T02:46:03;101051.47;;;22.21;50.97
70909;BME280;58554;52.006;5.926;2023-06-22T02:48:30;101058.84;;;22.19;51.32
70909;BME280;58554;52.006;5.926;2023-06-22T02:50:59;101061.00;;;22.16;51.29
70909;BME280;58554;52.006;5.926;2023-06-22T02:53:26;101062.03;;;22.15;51.21
70909;BME280;58554;52.006;5.926;2023-06-22T02:55:52;101063.84;;;22.14;51.22
70909;BME280;58554;52.006;5.926;2023-06-22T02:58:19;101062.19;;;22.13;51.46
70909;BME280;58554;52.006;5.926;2023-06-22T03:00:46;101068.25;;;22.15;51.25
70909;BME280;58554;52.006;5.926;2023-06-22T03:03:12;101066.53;;;22.14;51.55
70909;BME280;58554;52.006;5.926;2023-06-22T03:05:39;101062.19;;;22.13;51.87
70909;BME280;58554;52.006;5.926;2023-06-22T03:08:08;101050.56;;;22.13;51.53
70909;BME280;58554;52.006;5.926;2023-06-22T03:10:35;101046.16;;;22.12;51.99
70909;BME280;58554;52.006;5.926;2023-06-22T03:13:01;101050.03;;;22.09;51.82
70909;BME280;58554;52.006;5.926;2023-06-22T03:15:29;101051.88;;;22.09;52.07
70909;BME280;58554;52.006;5.926;2023-06-22T03:17:55;101045.25;;;22.03;52.07
70909;BME280;58554;52.006;5.926;2023-06-22T03:20:22;101041.00;;;22.00;52.02
70909;BME280;58554;52.006;5.926;2023-06-22T03:22:49;101037.06;;;21.95;52.14
70909;BME280;58554;52.006;5.926;2023-06-22T03:25:18;101040.72;;;21.86;51.77
70909;BME280;58554;52.006;5.926;2023-06-22T03:27:45;101038.25;;;21.74;51.93
70909;BME280;58554;52.006;5.926;2023-06-22T03:30:12;101039.31;;;21.63;52.05
70909;BME280;58554;52.006;5.926;2023-06-22T03:32:38;101036.00;;;21.52;52.16
70909;BME280;58554;52.006;5.926;2023-06-22T03:35:06;101031.56;;;21.42;52.51
70909;BME280;58554;52.006;5.926;2023-06-22T03:37:33;101033.94;;;21.28;52.75
70909;BME280;58554;52.006;5.926;2023-06-22T03:40:00;101027.19;;;21.14;52.85
70909;BME280;58554;52.006;5.926;2023-06-22T03:42:29;101037.28;;;21.02;52.94
70909;BME280;58554;52.006;5.926;2023-06-22T03:44:56;101026.88;;;20.89;53.35
70909;BME280;58554;52.006;5.926;2023-06-22T03:47:23;101022.84;;;20.75;53.46
70909;BME280;58554;52.006;5.926;2023-06-22T03:49:49;101025.88;;;20.62;53.54
70909;BME280;58554;52.006;5.926;2023-06-22T03:52:16;101032.25;;;20.52;53.88
70909;BME280;58554;52.006;5.926;2023-06-22T03:54:43;101025.19;;;20.41;54.20
70909;BME280;58554;52.006;5.926;2023-06-22T03:57:09;101027.06;;;20.31;54.21
70909;BME280;58554;52.006;5.926;2023-06-22T03:59:38;101026.94;;;20.22;54.68
70909;BME280;58554;52.006;5.926;2023-06-22T04:02:05;101027.81;;;20.13;54.95
70909;BME280;58554;52.006;5.926;2023-06-22T04:04:32;101026.28;;;20.01;55.08
70909;BME280;58554;52.006;5.926;2023-06-22T04:06:58;101019.94;;;19.92;55.49
70909;BME280;58554;52.006;5.926;2023-06-22T04:09:25;101022.47;;;19.84;55.29
70909;BME280;58554;52.006;5.926;2023-06-22T04:11:51;101018.13;;;19.73;55.79
70909;BME280;58554;52.006;5.926;2023-06-22T04:14:18;101021.50;;;19.66;55.95
70909;BME280;58554;52.006;5.926;2023-06-22T04:16:47;101021.06;;;19.60;55.89
70909;BME280;58554;52.006;5.926;2023-06-22T04:19:14;101024.28;;;19.54;56.17
70909;BME280;58554;52.006;5.926;2023-06-22T04:21:41;101023.84;;;19.49;56.36
70909;BME280;58554;52.006;5.926;2023-06-22T04:24:07;101022.56;;;19.43;56.60
70909;BME280;58554;52.006;5.926;2023-06-22T04:26:34;101024.81;;;19.38;57.11
70909;BME280;58554;52.006;5.926;2023-06-22T04:29:00;101029.47;;;19.36;57.18
70909;BME280;58554;52.006;5.926;2023-06-22T04:31:27;101023.41;;;19.34;57.27
70909;BME280;58554;52.006;5.926;2023-06-22T04:33:56;101020.59;;;19.36;57.38
70909;BME280;58554;52.006;5.926;2023-06-22T04:36:23;101022.41;;;19.35;57.67
70909;BME280;58554;52.006;5.926;2023-06-22T04:38:51;101017.75;;;19.37;57.64
70909;BME280;58554;52.006;5.926;2023-06-22T04:41:17;101016.66;;;19.40;57.99
70909;BME280;58554;52.006;5.926;2023-06-22T04:43:44;101018.91;;;19.45;57.99
70909;BME280;58554;52.006;5.926;2023-06-22T04:46:11;101019.31;;;19.50;58.07
70909;BME280;58554;52.006;5.926;2023-06-22T04:48:37;101014.53;;;19.53;58.27
70909;BME280;58554;52.006;5.926;2023-06-22T04:51:06;101015.09;;;19.57;58.35
70909;BME280;58554;52.006;5.926;2023-06-22T04:53:33;101014.72;;;19.61;58.25
70909;BME280;58554;52.006;5.926;2023-06-22T04:56:00;101001.16;;;19.63;58.67
70909;BME280;58554;52.006;5.926;2023-06-22T04:58:26;101013.31;;;19.67;58.70
70909;BME280;58554;52.006;5.926;2023-06-22T05:00:53;101019.38;;;19.69;58.80
70909;BME280;58554;52.006;5.926;2023-06-22T05:03:20;101016.25;;;19.74;58.49
70909;BME280;58554;52.006;5.926;2023-06-22T05:05:47;101018.66;;;19.77;58.57
70909;BME280;58554;52.006;5.926;2023-06-22T05:08:16;101016.53;;;19.80;58.77
70909;BME280;58554;52.006;5.926;2023-06-22T05:10:43;101016.28;;;19.84;58.92
70909;BME280;58554;52.006;5.926;2023-06-22T05:13:09;101014.84;;;19.89;58.93
70909;BME280;58554;52.006;5.926;2023-06-22T05:15:36;101014.25;;;19.95;59.11
70909;BME280;58554;52.006;5.926;2023-06-22T05:18:03;101019.75;;;20.03;58.93
70909;BME280;58554;52.006;5.926;2023-06-22T05:20:30;101017.78;;;20.06;58.60
70909;BME280;58554;52.006;5.926;2023-06-22T05:22:56;101017.50;;;20.09;59.04
70909;BME280;58554;52.006;5.926;2023-06-22T05:25:26;101019.91;;;20.12;58.69
70909;BME280;58554;52.006;5.926;2023-06-22T05:27:52;101017.06;;;20.13;58.93
70909;BME280;58554;52.006;5.926;2023-06-22T05:30:19;101025.00;;;20.15;58.78
70909;BME280;58554;52.006;5.926;2023-06-22T05:32:45;101023.16;;;20.15;59.18
70909;BME280;58554;52.006;5.926;2023-06-22T05:35:14;101015.78;;;20.17;58.89
70909;BME280;58554;52.006;5.926;2023-06-22T05:37:41;101014.66;;;20.20;59.15
70909;BME280;58554;52.006;5.926;2023-06-22T05:40:09;101019.56;;;20.25;59.18
70909;BME280;58554;52.006;5.926;2023-06-22T05:42:39;101020.84;;;20.30;58.93
70909;BME280;58554;52.006;5.926;2023-06-22T05:45:07;101031.84;;;20.37;58.79
70909;BME280;58554;52.006;5.926;2023-06-22T05:47:34;101032.31;;;20.42;58.71
70909;BME280;58554;52.006;5.926;2023-06-22T05:50:01;101028.03;;;20.49;59.07
70909;BME280;58554;52.006;5.926;2023-06-22T05:52:27;101025.59;;;20.56;58.82
70909;BME280;58554;52.006;5.926;2023-06-22T05:54:54;101031.25;;;20.62;58.98
70909;BME280;58554;52.006;5.926;2023-06-22T05:57:20;101024.44;;;20.68;58.96
70909;BME280;58554;52.006;5.926;2023-06-22T05:59:50;101028.06;;;20.77;58.81
70909;BME280;58554;52.006;5.926;2023-06-22T06:02:16;101030.00;;;20.85;58.74
70909;BME280;58554;52.006;5.926;2023-06-22T06:04:43;101032.53;;;20.96;58.64
70909;BME280;58554;52.006;5.926;2023-06-22T06:07:10;101030.47;;;21.08;58.54
70909;BME280;58554;52.006;5.926;2023-06-22T06:09:36;101034.47;;;21.31;58.58
70909;BME280;58554;52.006;5.926;2023-06-22T06:12:04;101030.56;;;21.61;57.69
70909;BME280;58554;52.006;5.926;2023-06-22T06:14:31;101033.31;;;22.06;57.00
70909;BME280;58554;52.006;5.926;2023-06-22T06:17:00;101025.72;;;22.53;56.27
70909;BME280;58554;52.006;5.926;2023-06-22T06:19:27;101024.19;;;22.77;55.39
70909;BME280;58554;52.006;5.926;2023-06-22T06:21:54;101026.72;;;22.78;55.81
70909;BME280;58554;52.006;5.926;2023-06-22T06:24:20;101028.03;;;22.74;55.84
70909;BME280;58554;52.006;5.926;2023-06-22T06:26:47;101020.28;;;22.71;56.17
70909;BME280;58554;52.006;5.926;2023-06-22T06:29:13;101020.78;;;22.75;56.21
70909;BME280;58554;52.006;5.926;2023-06-22T06:31:40;101018.31;;;22.81;56.30
70909;BME280;58554;52.006;5.926;2023-06-22T06:34:09;101013.13;;;22.88;56.25
70909;BME280;58554;52.006;5.926;2023-06-22T06:36:36;101009.09;;;22.92;56.23
70909;BME280;58554;52.006;5.926;2023-06-22T06:39:02;101012.81;;;22.99;56.19
70909;BME280;58554;52.006;5.926;2023-06-22T06:41:29;101008.47;;;23.07;55.94
70909;BME280;58554;52.006;5.926;2023-06-22T06:43:55;101027.38;;;23.15;56.03
70909;BME280;58554;52.006;5.926;2023-06-22T06:46:22;101012.56;;;23.19;55.60
70909;BME280;58554;52.006;5.926;2023-06-22T06:48:49;101000.09;;;23.26;55.65
70909;BME280;58554;52.006;5.926;2023-06-22T06:51:18;100996.06;;;23.38;55.51
70909;BME280;58554;52.006;5.926;2023-06-22T06:53:44;100995.44;;;23.53;55.13
70909;BME280;58554;52.006;5.926;2023-06-22T06:56:11;100992.25;;;23.66;55.17
70909;BME280;58554;52.006;5.926;2023-06-22T06:58:40;100993.75;;;23.76;55.07
70909;BME280;58554;52.006;5.926;2023-06-22T07:01:07;100992.09;;;23.83;54.69
70909;BME280;58554;52.006;5.926;2023-06-22T07:03:34;100985.13;;;23.89;54.51
70909;BME280;58554;52.006;5.926;2023-06-22T07:06:03;100991.72;;;23.95;54.13
70909;BME280;58554;52.006;5.926;2023-06-22T07:08:32;100985.47;;;24.02;54.05
70909;BME280;58554;52.006;5.926;2023-06-22T07:10:59;100991.53;;;24.13;54.09
70909;BME280;58554;52.006;5.926;2023-06-22T07:13:25;100984.59;;;24.18;54.13
70909;BME280;58554;52.006;5.926;2023-06-22T07:15:52;100985.63;;;24.26;53.74
70909;BME280;58554;52.006;5.926;2023-06-22T07:18:18;100987.31;;;24.27;53.93
70909;BME280;58554;52.006;5.926;2023-06-22T07:20:45;100980.69;;;24.29;53.40
70909;BME280;58554;52.006;5.926;2023-06-22T07:23:12;100983.75;;;24.34;53.54
70909;BME280;58554;52.006;5.926;2023-06-22T07:25:44;100980.88;;;24.36;53.14
70909;BME280;58554;52.006;5.926;2023-06-22T07:28:10;100975.81;;;24.33;53.50
70909;BME280;58554;52.006;5.926;2023-06-22T07:30:37;100973.78;;;24.35;52.92
70909;BME280;58554;52.006;5.926;2023-06-22T07:33:03;100980.00;;;24.43;52.82
70909;BME280;58554;52.006;5.926;2023-06-22T07:35:30;100972.72;;;24.52;53.21
70909;BME280;58554;52.006;5.926;2023-06-22T07:37:57;100965.03;;;24.64;52.88
70909;BME280;58554;52.006;5.926;2023-06-22T07:40:24;100970.56;;;24.79;52.86
70909;BME280;58554;52.006;5.926;2023-06-22T07:42:54;100974.59;;;24.91;52.74
70909;BME280;58554;52.006;5.926;2023-06-22T07:45:20;100967.47;;;24.98;52.25
70909;BME280;58554;52.006;5.926;2023-06-22T07:47:47;100966.25;;;25.01;51.74
70909;BME280;58554;52.006;5.926;2023-06-22T07:50:13;100962.84;;;25.07;52.17
70909;BME280;58554;52.006;5.926;2023-06-22T07:52:40;100965.31;;;25.17;51.95
70909;BME280;58554;52.006;5.926;2023-06-22T07:55:08;100958.34;;;25.22;51.78
70909;BME280;58554;52.006;5.926;2023-06-22T07:57:34;100954.72;;;25.30;51.91
70909;BME280;58554;52.006;5.926;2023-06-22T08:00:06;100948.94;;;25.33;51.56
70909;BME280;58554;52.006;5.926;2023-06-22T08:02:33;100956.06;;;25.34;50.87
70909;BME280;58554;52.006;5.926;2023-06-22T08:05:00;100951.66;;;25.33;51.15
70909;BME280;58554;52.006;5.926;2023-06-22T08:07:26;100952.31;;;25.35;51.13
70909;BME280;58554;52.006;5.926;2023-06-22T08:09:53;100950.59;;;25.42;51.09
70909;BME280;58554;52.006;5.926;2023-06-22T08:12:19;100946.31;;;25.48;50.73
70909;BME280;58554;52.006;5.926;2023-06-22T08:14:46;100936.97;;;25.51;50.73
70909;BME280;58554;52.006;5.926;2023-06-22T08:17:15;100936.50;;;25.47;50.34
70909;BME280;58554;52.006;5.926;2023-06-22T08:19:42;100938.53;;;25.45;50.80
70909;BME280;58554;52.006;5.926;2023-06-22T08:22:08;100924.53;;;25.41;50.66
70909;BME280;58554;52.006;5.926;2023-06-22T08:24:35;100928.75;;;25.44;50.64
70909;BME280;58554;52.006;5.926;2023-06-22T08:27:02;100924.84;;;25.47;50.87
70909;BME280;58554;52.006;5.926;2023-06-22T08:29:29;100921.28;;;25.46;50.55
70909;BME280;58554;52.006;5.926;2023-06-22T08:31:55;100917.06;;;25.43;50.45
70909;BME280;58554;52.006;5.926;2023-06-22T08:34:24;100910.81;;;25.43;50.53
70909;BME280;58554;52.006;5.926;2023-06-22T08:36:51;100899.16;;;25.42;50.43
70909;BME280;58554;52.006;5.926;2023-06-22T08:39:18;100896.25;;;25.44;50.26
70909;BME280;58554;52.006;5.926;2023-06-22T08:41:45;100897.94;;;25.45;49.85
70909;BME280;58554;52.006;5.926;2023-06-22T08:44:12;100899.06;;;25.51;50.05
70909;BME280;58554;52.006;5.926;2023-06-22T08:46:39;100888.88;;;25.61;50.05
70909;BME280;58554;52.006;5.926;2023-06-22T08:49:05;100892.59;;;25.75;49.57
70909;BME280;58554;52.006;5.926;2023-06-22T08:51:35;100892.81;;;25.88;49.27
70909;BME280;58554;52.006;5.926;2023-06-22T08:54:01;100892.91;;;25.95;49.02
70909;BME280;58554;52.006;5.926;2023-06-22T08:56:28;100894.69;;;26.02;49.21
70909;BME280;58554;52.006;5.926;2023-06-22T08:58:55;100893.09;;;26.08;48.97
70909;BME280;58554;52.006;5.926;2023-06-22T09:01:21;100899.63;;;26.14;48.79
70909;BME280;58554;52.006;5.926;2023-06-22T09:03:48;100897.00;;;26.20;48.63
70909;BME280;58554;52.006;5.926;2023-06-22T09:06:15;100896.69;;;26.23;48.63
70909;BME280;58554;52.006;5.926;2023-06-22T09:08:44;100898.34;;;26.24;48.38
70909;BME280;58554;52.006;5.926;2023-06-22T09:11:10;100886.09;;;26.29;47.92
70909;BME280;58554;52.006;5.926;2023-06-22T09:13:37;100887.69;;;26.38;48.05
70909;BME280;58554;52.006;5.926;2023-06-22T09:16:04;100894.97;;;26.52;47.91
70909;BME280;58554;52.006;5.926;2023-06-22T09:18:30;100895.38;;;26.71;48.05
70909;BME280;58554;52.006;5.926;2023-06-22T09:20:57;100895.63;;;26.91;47.78
70909;BME280;58554;52.006;5.926;2023-06-22T09:23:23;100889.56;;;27.10;46.88
70909;BME280;58554;52.006;5.926;2023-06-22T09:25:53;100884.47;;;27.22;46.73
70909;BME280;58554;52.006;5.926;2023-06-22T09:28:19;100878.72;;;27.32;46.35
70909;BME280;58554;52.006;5.926;2023-06-22T09:30:46;100879.78;;;27.37;45.98
70909;BME280;58554;52.006;5.926;2023-06-22T09:33:12;100869.78;;;27.38;45.52
70909;BME280;58554;52.006;5.926;2023-06-22T09:35:39;100877.47;;;27.34;45.25
70909;BME280;58554;52.006;5.926;2023-06-22T09:38:06;100880.66;;;27.38;45.52
70909;BME280;58554;52.006;5.926;2023-06-22T09:40:32;100872.03;;;27.34;45.05
70909;BME280;58554;52.006;5.926;2023-06-22T09:43:02;100866.44;;;27.36;45.35
70909;BME280;58554;52.006;5.926;2023-06-22T09:45:28;100866.19;;;27.37;45.29
70909;BME280;58554;52.006;5.926;2023-06-22T09:47:55;100869.78;;;27.38;44.96
70909;BME280;58554;52.006;5.926;2023-06-22T09:50:22;100877.53;;;27.41;44.84
70909;BME280;58554;52.006;5.926;2023-06-22T09:52:48;100874.44;;;27.44;44.47
70909;BME280;58554;52.006;5.926;2023-06-22T09:55:15;100869.28;;;27.49;44.43
70909;BME280;58554;52.006;5.926;2023-06-22T09:57:42;100862.59;;;27.52;43.81
70909;BME280;58554;52.006;5.926;2023-06-22T10:00:15;100870.09;;;27.50;43.74
70909;BME280;58554;52.006;5.926;2023-06-22T10:02:43;100868.88;;;27.52;44.07
70909;BME280;58554;52.006;5.926;2023-06-22T10:05:10;100869.66;;;27.46;43.76
70909;BME280;58554;52.006;5.926;2023-06-22T10:07:37;100873.94;;;27.34;43.68
70909;BME280;58554;52.006;5.926;2023-06-22T10:10:06;100869.28;;;27.28;43.74
70909;BME280;58554;52.006;5.926;2023-06-22T10:12:34;100877.97;;;27.23;43.81
70909;BME280;58554;52.006;5.926;2023-06-22T10:15:00;100881.94;;;27.20;43.87
70909;BME280;58554;52.006;5.926;2023-06-22T10:17:30;100881.09;;;27.20;43.94
70909;BME280;58554;52.006;5.926;2023-06-22T10:19:56;100870.38;;;27.12;43.84
70909;BME280;58554;52.006;5.926;2023-06-22T10:22:23;100870.91;;;27.00;44.06
70909;BME280;58554;52.006;5.926;2023-06-22T10:24:49;100861.59;;;26.88;43.74
70909;BME280;58554;52.006;5.926;2023-06-22T10:27:16;100863.09;;;26.76;43.81
70909;BME280;58554;52.006;5.926;2023-06-22T10:29:43;100855.91;;;26.68;44.06
70909;BME280;58554;52.006;5.926;2023-06-22T10:32:10;100862.56;;;26.65;44.34
70909;BME280;58554;52.006;5.926;2023-06-22T10:34:39;100858.75;;;26.60;44.05
70909;BME280;58554;52.006;5.926;2023-06-22T10:37:06;100859.91;;;26.51;44.11
70909;BME280;58554;52.006;5.926;2023-06-22T10:39:32;100858.78;;;26.45;44.45
70909;BME280;58554;52.006;5.926;2023-06-22T10:41:59;100862.91;;;26.41;44.23
70909;BME280;58554;52.006;5.926;2023-06-22T10:44:25;100852.25;;;26.39;44.60
70909;BME280;58554;52.006;5.926;2023-06-22T10:46:52;100859.19;;;26.42;44.43
70909;BME280;58554;52.006;5.926;2023-06-22T10:49:18;100855.88;;;26.47;44.48
70909;BME280;58554;52.006;5.926;2023-06-22T10:51:48;100862.44;;;26.52;44.61
70909;BME280;58554;52.006;5.926;2023-06-22T10:54:14;100854.38;;;26.59;44.22
70909;BME280;58554;52.006;5.926;2023-06-22T10:56:41;100855.44;;;26.64;44.31
70909;BME280;58554;52.006;5.926;2023-06-22T10:59:07;100853.38;;;26.66;44.39
70909;BME280;58554;52.006;5.926;2023-06-22T11:01:34;100852.84;;;26.71;44.15
70909;BME280;58554;52.006;5.926;2023-06-22T11:04:00;100850.56;;;26.75;44.65
70909;BME280;58554;52.006;5.926;2023-06-22T11:06:27;100848.50;;;26.77;44.33
70909;BME280;58554;52.006;5.926;2023-06-22T11:08:56;100839.69;;;26.75;44.05
70909;BME280;58554;52.006;5.926;2023-06-22T11:11:22;100844.13;;;26.76;44.38
70909;BME280;58554;52.006;5.926;2023-06-22T11:13:49;100840.16;;;26.78;44.65
70909;BME280;58554;52.006;5.926;2023-06-22T11:16:16;100841.00;;;26.79;44.74
70909;BME280;58554;52.006;5.926;2023-06-22T11:18:42;100829.78;;;26.82;44.43
70909;BME280;58554;52.006;5.926;2023-06-22T11:21:09;100842.50;;;26.81;44.40
70909;BME280;58554;52.006;5.926;2023-06-22T11:23:36;100828.09;;;26.81;44.60
70909;BME280;58554;52.006;5.926;2023-06-22T11:26:05;100840.16;;;26.78;45.07
70909;BME280;58554;52.006;5.926;2023-06-22T11:28:31;100847.19;;;26.73;44.86
70909;BME280;58554;52.006;5.926;2023-06-22T11:30:58;100841.88;;;26.64;45.11
70909;BME280;58554;52.006;5.926;2023-06-22T11:33:24;100843.22;;;26.54;45.33
70909;BME280;58554;52.006;5.926;2023-06-22T11:35:51;100843.09;;;26.40;45.51
70909;BME280;58554;52.006;5.926;2023-06-22T11:38:17;100842.56;;;26.30;46.13
70909;BME280;58554;52.006;5.926;2023-06-22T11:40:44;100839.84;;;26.15;46.13
70909;BME280;58554;52.006;5.926;2023-06-22T11:43:13;100843.56;;;25.99;46.34
70909;BME280;58554;52.006;5.926;2023-06-22T11:45:39;100835.44;;;25.84;46.77
70909;BME280;58554;52.006;5.926;2023-06-22T11:48:06;100837.69;;;25.66;47.03
70909;BME280;58554;52.006;5.926;2023-06-22T11:50:33;100840.53;;;25.50;47.44
70909;BME280;58554;52.006;5.926;2023-06-22T11:52:59;100848.44;;;25.36;48.00
70909;BME280;58554;52.006;5.926;2023-06-22T11:55:26;100847.03;;;25.25;48.06
70909;BME280;58554;52.006;5.926;2023-06-22T11:57:54;100862.19;;;25.12;48.04
70909;BME280;58554;52.006;5.926;2023-06-22T12:00:25;100864.66;;;24.98;48.82
70909;BME280;58554;52.006;5.926;2023-06-22T12:02:52;100858.59;;;24.88;49.37
70909;BME280;58554;52.006;5.926;2023-06-22T12:05:19;100869.97;;;24.83;49.68
70909;BME280;58554;52.006;5.926;2023-06-22T12:07:46;100850.44;;;24.73;50.08
70909;BME280;58554;52.006;5.926;2023-06-22T12:10:13;100848.94;;;24.62;50.24
70909;BME280;58554;52.006;5.926;2023-06-22T12:12:40;100845.16;;;24.49;50.76
70909;BME280;58554;52.006;5.926;2023-06-22T12:15:08;100835.25;;;24.33;51.06
70909;BME280;58554;52.006;5.926;2023-06-22T12:17:38;100844.59;;;24.22;51.60
70909;BME280;58554;52.006;5.926;2023-06-22T12:20:07;100843.78;;;24.13;51.82
70909;BME280;58554;52.006;5.926;2023-06-22T12:22:35;100834.00;;;24.04;52.26
70909;BME280;58554;52.006;5.926;2023-06-22T12:25:01;100832.19;;;23.96;52.63
70909;BME280;58554;52.006;5.926;2023-06-22T12:27:28;100836.13;;;23.86;53.13
70909;BME280;58554;52.006;5.926;2023-06-22T12:29:54;100834.09;;;23.79;53.56
70909;BME280;58554;52.006;5.926;2023-06-22T12:32:21;100841.03;;;23.74;54.36
70909;BME280;58554;52.006;5.926;2023-06-22T12:34:50;100837.00;;;23.70;54.66
70909;BME280;58554;52.006;5.926;2023-06-22T12:37:17;100842.91;;;23.65;54.91
70909;BME280;58554;52.006;5.926;2023-06-22T12:39:44;100846.13;;;23.60;55.29
70909;BME280;58554;52.006;5.926;2023-06-22T12:42:10;100843.09;;;23.55;55.68
70909;BME280;58554;52.006;5.926;2023-06-22T12:44:37;100837.50;;;23.49;55.73
70909;BME280;58554;52.006;5.926;2023-06-22T12:47:05;100825.53;;;23.43;55.91
70909;BME280;58554;52.006;5.926;2023-06-22T12:49:32;100822.50;;;23.38;56.34
70909;BME280;58554;52.006;5.926;2023-06-22T12:52:02;100818.63;;;23.32;56.52